• Join FlightAware (Why Join?)
  • Login
  • US Flag 
02:55AM EST


 

Airport Tracker/Info


-or-


 

Live Flight TrackerFlight Track Log ✈ WIG1041 ✈ 25-Jul-2013 ✈ KBTV - KMHT

Flight Track Log - Related Links

Times and Time Zones

All times are in EDT time to prevent confusion due to time zone crossing. See the WIG1041 flight status page for this flight to view local times or setup timezone preferences in your user account.

Time Position Orientation Groundspeed Altitude Reporting Facility
EDT Latitude Longitude Course Direction KTS MPH feet Rate Location/Type
07:44PM 44.2894 -72.9128 142° Southeast 209 241 7,800  Level Boston Center
07:45PM 44.2358 -72.8858 144° Southeast  Level FlightAware Approximate
07:45PM 44.2481 -72.8633 139° Southeast 218 251 8,800  Level Boston Center
07:46PM 44.1965 -72.8431 140° Southeast  Level FlightAware Approximate
07:46PM 44.2044 -72.8108 139° Southeast 205 236 9,000  Level Boston Center
07:47PM 44.1582 -72.7984 140° Southeast  Level FlightAware Approximate
07:47PM 44.1483 -72.7467 141° Southeast 215 247 9,000  Level Boston Center
07:48PM 44.1200 -72.7539 140° Southeast  Level FlightAware Approximate
07:48PM 44.1028 -72.7003 144° Southeast 221 254 8,900  Level Boston Center
07:49PM 44.0810 -72.7105 141° Southeast  Level FlightAware Approximate
07:49PM 44.0569 -72.6422 138° Southeast 226 260 8,900  Level Boston Center
07:50PM 44.0420 -72.6674 142° Southeast  Level FlightAware Approximate
07:50PM 44.0050 -72.5931 146° Southeast 226 260 9,000  Level Boston Center
07:51PM 43.9528 -72.5467 147° Southeast 226 260 8,900  Descending Boston Center
07:52PM 43.9156 -72.5064 142° Southeast 221 254 9,000  Climbing Boston Center
07:53PM 43.8675 -72.4486 139° Southeast 221 254 9,000 -60 Level Boston Center
07:54PM 43.8092 -72.3856 142° Southeast 221 254 8,900  Descending Boston Center
07:55PM 43.7633 -72.3250 136° Southeast 226 260 9,000  Climbing Boston Center
07:57PM 43.7069 -72.2650 142° Southeast 226 260 8,900 -420 Descending Boston Center
07:58PM 43.6569 -72.2078 140° Southeast 231 266 8,200 -1,020 Descending Boston Center
07:59PM 43.6025 -72.1506 143° Southeast 236 272 6,900 -660 Descending Boston Center
08:00PM 43.5481 -72.0933 143° Southeast 236 272 6,900 -360 Level Boston Center
08:01PM 43.4981 -72.0422 143° Southeast 236 272 6,200 -720 Descending Boston Center
08:02PM 43.4542 -71.9969 143° Southeast 241 277 5,500 -660 Descending Boston Center
08:03PM 43.3914 -71.9286 142° Southeast 241 277 4,900 -300 Descending Boston Center
08:04PM 43.3389 -71.8719 142° Southeast 235 270 5,000  Climbing Boston Center
08:05PM 43.2969 -71.8239 140° Southeast 224 258 5,000  Level Boston Center
08:06PM 43.2383 -71.7844 154° Southeast 219 252 5,000 -120 Level Boston Center
08:07PM 43.1861 -71.7625 163° South 219 252 4,800 -60 Descending Boston Center
08:08PM 43.1194 -71.7489 172° South 219 252 4,900  Climbing Boston Center
08:09PM 43.0653 -71.7411 174° South 219 252 4,900  Level Boston Center
08:10PM 43.0003 -71.7161 164° South 219 252 4,900  Level Boston Center
08:11PM 42.9503 -71.6997 167° South 210 242 5,000  Climbing Boston Center
08:12PM 42.8958 -71.6806 166° South 188 216 5,000 -540 Level Boston Center
08:14PM 42.8167 -71.6167 149° Southeast 182 209 3,400 -900 Descending KA90
08:15PM 42.8333 -71.5667 66° East 174 200 2,300 -840 Descending KA90
08:16PM 42.8667 -71.5167 48° Northeast 169 194 1,800 -660 Descending KA90
08:17PM 42.9000 -71.4833 36° Northeast 168 193 1,000 -840 Descending KA90
08:19PM 42.9167 -71.4333 49° Northeast  Level FlightAware Approximate
08:26PM 42.9328 -71.4358 49° Northeast  Level Estimated